Date,TemperatureHighF,TemperatureAvgF,TemperatureLowF,DewpointHighF,DewpointAvgF,DewpointLowF,HumidityHigh,HumidityAvg,HumidityLow,PressureMaxIn,PressureMinIn,WindSpeedMaxMPH,WindSpeedAvgMPH,GustSpeedMaxMPH,PrecipitationSumIn
2013-1-1,59.0,48.0,38.0,28.0,23.8,18.0,61,40,25,30.29,30.17,10,3,13,0.00
2013-1-2,60.0,51.4,44.0,28.0,18.9,16.0,46,28,18,30.20,30.05,12,6,17,0.00
2013-1-3,63.0,52.6,40.0,22.0,17.2,12.0,47,26,14,30.21,30.06,12,6,22,0.00
2013-1-4,64.0,52.6,41.0,24.0,18.5,12.0,46,27,18,30.32,30.20,8,3,11,0.00
2013-1-5,64.0,49.9,38.0,25.0,20.0,16.0,52,32,17,30.35,30.20,7,3,10,0.00
2013-1-6,68.0,52.4,39.0,37.0,27.9,20.0,55,39,22,30.20,29.98,10,3,15,0.00
2013-1-7,64.0,55.5,45.0,42.0,32.6,24.0,65,44,23,30.03,29.92,13,5,21,0.00
2013-1-8,72.0,57.6,41.0,32.0,27.4,20.0,57,34,17,30.09,29.93,13,4,18,0.00
2013-1-9,73.0,59.5,48.0,39.0,31.8,29.0,53,37,21,30.16,29.97,8,2,16,0.00
2013-1-10,69.0,55.7,48.0,50.0,35.0,26.0,60,46,31,30.00,29.83,16,5,33,0.00
2013-1-11,61.0,49.5,38.0,33.0,24.9,17.0,61,40,19,30.16,30.00,10,3,17,0.00
2013-1-12,57.0,45.5,36.0,28.0,22.5,16.0,65,43,20,30.17,30.03,9,2,13,0.00
2013-1-13,56.0,44.6,36.0,18.0,12.0,8.0,46,28,15,30.20,30.07,8,3,12,0.00
2013-1-14,49.0,43.4,37.0,14.0,5.4,0.0,37,21,14,30.35,30.13,16,8,23,0.00
2013-1-15,52.0,44.3,40.0,19.0,10.4,2.0,36,25,19,30.44,30.32,12,5,18,0.00
2013-1-16,61.0,50.1,37.0,28.0,20.7,15.0,43,32,22,30.43,30.24,12,5,19,0.00
2013-1-17,69.0,57.3,45.0,27.0,22.8,20.0,43,27,18,30.28,30.15,13,6,22,0.00
2013-1-18,72.0,60.2,51.0,26.0,21.8,18.0,34,23,16,30.21,30.10,13,5,21,0.00
2013-1-19,73.0,59.3,44.0,27.0,23.1,21.0,42,26,16,30.24,30.11,13,4,18,0.00
2013-1-20,73.0,59.2,45.0,29.0,21.5,19.0,50,25,13,30.16,30.03,11,4,15,0.00
2013-1-21,74.0,60.7,46.0,26.0,17.1,14.0,43,20,11,30.12,30.03,12,5,19,0.00
2013-1-22,77.0,62.1,46.0,31.0,19.2,12.0,37,20,11,30.14,30.04,8,3,11,0.00
2013-1-23,79.0,64.4,51.0,38.0,27.4,20.0,37,26,16,30.12,30.01,7,2,11,0.00
2013-1-24,73.0,65.2,60.0,49.0,44.3,32.0,60,47,31,30.19,30.07,6,2,9,0.00
2013-1-25,72.0,63.5,58.0,58.0,52.6,46.0,94,69,46,30.14,29.97,8,4,13,0.53
2013-1-26,59.0,58.9,58.0,58.0,57.3,56.0,95,94,94,29.97,29.90,2,1,4,0.75